Fecha, hora, temperatura, viento dirección y velocidad, humedad y presión.

  • 16-01-2019 16:00:00 | 13.90°C | Oeste |16.00 km/h | 80.00% | 1016.20 hPa
  • 16-01-2019 15:00:00 | 14.20°C | Oeste |19.00 km/h | 77.00% | 1016.20 hPa
  • 16-01-2019 14:00:00 | 14.80°C | Sudoeste |19.00 km/h | 76.00% | 1016.60 hPa
  • 16-01-2019 13:00:00 | 13.20°C | Oeste |4.00 km/h | 72.00% | 1017.30 hPa
  • 16-01-2019 12:00:00 | 10.00°C | Norte |9.00 km/h | 71.00% | 1018.30 hPa
  • 16-01-2019 11:00:00 | 8.60°C | Norte |15.00 km/h | 73.00% | 1018.90 hPa
  • 16-01-2019 10:00:00 | 7.20°C | Norte |16.00 km/h | 78.00% | 1018.90 hPa
  • 16-01-2019 09:00:00 | 6.60°C | Norte |14.00 km/h | 80.00% | 1018.50 hPa
  • 16-01-2019 08:00:00 | 6.60°C | Norte |14.00 km/h | 83.00% | 1018.30 hPa
  • 16-01-2019 07:00:00 | 5.90°C | Norte |14.00 km/h | 82.00% | 1018.30 hPa
  • 16-01-2019 06:00:00 | 6.30°C | Norte |13.00 km/h | 83.00% | 1018.20 hPa
  • 16-01-2019 05:00:00 | 6.50°C | Norte |10.00 km/h | 83.00% | 1018.80 hPa
  • 16-01-2019 04:00:00 | 5.90°C | Norte |13.00 km/h | 87.00% | 1019.20 hPa
  • 16-01-2019 03:00:00 | 6.40°C | Norte |13.00 km/h | 86.00% | 1019.50 hPa
  • 16-01-2019 02:00:00 | 6.20°C | Norte |13.00 km/h | 87.00% | 1019.60 hPa
  • 16-01-2019 01:00:00 | 6.80°C | Norte |14.00 km/h | 88.00% | 1019.80 hPa
  • 16-01-2019 00:00:00 | 7.20°C | Norte |14.00 km/h | 88.00% | 1020.30 hPa
  • 15-01-2019 23:00:00 | 7.60°C | Norte |11.00 km/h | 87.00% | 1020.40 hPa
  • 15-01-2019 22:00:00 | 7.90°C | Norte |8.00 km/h | 86.00% | 1020.40 hPa
  • 15-01-2019 21:00:00 | 8.50°C | Calma |0.00 km/h | 86.00% | 1020.40 hPa
  • 15-01-2019 20:00:00 | 9.00°C | Norte |5.00 km/h | 82.00% | 1020.40 hPa
  • 15-01-2019 19:00:00 | 10.70°C | Oeste |12.00 km/h | 77.00% | 1020.20 hPa
  • 15-01-2019 18:00:00 | 12.10°C | Sudoeste |12.00 km/h | 72.00% | 1019.90 hPa
  • 15-01-2019 17:00:00 | 13.60°C | Sudoeste |14.00 km/h | 70.00% | 1019.90 hPa
    • diseño web asturias Información sobre el estado de las mareas, altura de la marejada, temperatura del agua y otros datos de Gijón en Asturias.

      Surf Gijón